createdAt,value
2022-12-31T00:01:38.373Z,102291.41
2022-12-31T00:04:05.406Z,102283.59
2022-12-31T00:06:34.843Z,102285.22
2022-12-31T00:09:06.361Z,102262.25
2022-12-31T00:11:33.972Z,102244.03
2022-12-31T00:14:00.663Z,102235.59
2022-12-31T00:16:33.054Z,102252.22
2022-12-31T00:19:00.972Z,102283.06
2022-12-31T00:21:31.056Z,102264.44
2022-12-31T00:23:57.909Z,102217.56
2022-12-31T00:26:28.252Z,102208.13
2022-12-31T00:28:56.870Z,102249.66
2022-12-31T00:31:26.929Z,102285.34
2022-12-31T00:33:57.820Z,102249.00
2022-12-31T00:36:28.500Z,102297.56
2022-12-31T00:38:57.530Z,102291.41
2022-12-31T00:41:25.753Z,102287.06
2022-12-31T00:43:54.368Z,102285.25
2022-12-31T00:46:22.250Z,102288.41
2022-12-31T00:48:49.223Z,102287.63
2022-12-31T00:51:20.325Z,102290.09
2022-12-31T00:53:48.912Z,102246.72
2022-12-31T00:56:19.713Z,102284.56
2022-12-31T00:58:47.560Z,102291.88
2022-12-31T01:01:25.005Z,102297.28
2022-12-31T01:03:55.969Z,102297.38
2022-12-31T01:06:23.745Z,102283.69
2022-12-31T01:08:51.664Z,102317.19
2022-12-31T01:11:19.377Z,102232.00
2022-12-31T01:13:51.203Z,102315.09
2022-12-31T01:16:20.838Z,102318.19
2022-12-31T01:18:47.737Z,102285.06
2022-12-31T01:21:15.409Z,102334.78
2022-12-31T01:23:45.408Z,102329.47
2022-12-31T01:26:14.442Z,102333.69
2022-12-31T01:28:41.458Z,102334.84
2022-12-31T01:31:13.582Z,102327.31
2022-12-31T01:33:41.587Z,102339.88
2022-12-31T01:36:12.849Z,102336.38
2022-12-31T01:38:39.984Z,102338.06
2022-12-31T01:41:12.791Z,102342.06
2022-12-31T01:43:51.185Z,102354.31
2022-12-31T01:46:28.878Z,102357.81
2022-12-31T01:49:21.460Z,102260.94
2022-12-31T01:52:00.887Z,102310.47
2022-12-31T01:54:32.673Z,102352.09
2022-12-31T01:56:59.626Z,102348.56
2022-12-31T01:59:28.999Z,102342.59
2022-12-31T02:01:59.383Z,102328.91
2022-12-31T02:04:28.118Z,102307.81
2022-12-31T02:07:01.026Z,102361.09
2022-12-31T02:09:29.483Z,102343.31
2022-12-31T02:11:57.259Z,102357.34
2022-12-31T02:14:34.802Z,102310.84
2022-12-31T02:17:22.557Z,102379.91
2022-12-31T02:20:27.257Z,102373.69
2022-12-31T02:23:27.259Z,102377.75
2022-12-31T02:26:30.561Z,102345.38
2022-12-31T02:29:21.628Z,102379.75
2022-12-31T02:31:59.035Z,102316.91
2022-12-31T02:34:40.028Z,102328.00
2022-12-31T02:37:12.430Z,102299.06
2022-12-31T02:39:41.022Z,102370.84
2022-12-31T02:42:07.898Z,102352.44
2022-12-31T02:44:36.798Z,102346.53
2022-12-31T02:47:10.624Z,102279.03
2022-12-31T02:50:02.209Z,102298.50
2022-12-31T02:52:47.524Z,102354.91
2022-12-31T02:55:50.851Z,102348.22
2022-12-31T02:59:01.150Z,102356.63
2022-12-31T03:01:54.250Z,102347.19
2022-12-31T03:04:32.243Z,102353.38
2022-12-31T03:07:05.103Z,102345.34
2022-12-31T03:09:32.479Z,102336.94
2022-12-31T03:12:18.228Z,102314.91
2022-12-31T03:14:47.793Z,102358.25
2022-12-31T03:17:14.980Z,102338.34
2022-12-31T03:20:01.508Z,102371.03
2022-12-31T03:22:28.211Z,102357.50
2022-12-31T03:25:29.408Z,102366.22
2022-12-31T03:27:57.199Z,102375.66
2022-12-31T03:30:27.620Z,102375.72
2022-12-31T03:32:56.346Z,102371.03
2022-12-31T03:35:24.677Z,102361.09
2022-12-31T03:37:58.182Z,102368.13
2022-12-31T03:40:27.158Z,102374.59
2022-12-31T03:42:54.318Z,102368.75
2022-12-31T03:45:24.843Z,102387.94
2022-12-31T03:47:53.428Z,102391.72
2022-12-31T03:50:23.768Z,102361.09
2022-12-31T03:52:50.512Z,102357.69
2022-12-31T03:55:17.643Z,102396.84
2022-12-31T03:57:44.573Z,102359.03
2022-12-31T04:00:15.270Z,102270.38
2022-12-31T04:02:42.430Z,102368.63
2022-12-31T04:05:09.705Z,102385.06
2022-12-31T04:07:36.909Z,102395.50
2022-12-31T04:10:08.709Z,102396.84
2022-12-31T04:12:38.919Z,102374.25
2022-12-31T04:15:19.035Z,102372.88
2022-12-31T04:17:48.556Z,102364.00
2022-12-31T04:20:16.364Z,102386.22
2022-12-31T04:22:44.407Z,102372.31
2022-12-31T04:25:11.767Z,102385.50
2022-12-31T04:27:45.451Z,102363.66
2022-12-31T04:30:15.322Z,102378.28
2022-12-31T04:32:42.488Z,102384.38
2022-12-31T04:35:11.637Z,102387.22
2022-12-31T04:37:44.488Z,102389.00
2022-12-31T04:40:11.507Z,102380.38
2022-12-31T04:42:41.005Z,102390.91
2022-12-31T04:45:09.293Z,102382.63
2022-12-31T04:47:39.134Z,102387.88
2022-12-31T04:50:06.364Z,102357.41
2022-12-31T04:52:42.445Z,102396.09
2022-12-31T04:55:10.482Z,102393.66
2022-12-31T04:57:38.807Z,102401.97
2022-12-31T05:00:06.632Z,102385.84
2022-12-31T05:02:33.695Z,102408.47
2022-12-31T05:05:00.646Z,102409.59
2022-12-31T05:07:29.905Z,102414.13
2022-12-31T05:09:59.437Z,102431.66
2022-12-31T05:12:26.903Z,102377.56
2022-12-31T05:14:53.654Z,102379.44
2022-12-31T05:17:24.067Z,102410.22
2022-12-31T05:19:50.806Z,102439.78
2022-12-31T05:22:29.540Z,102417.97
2022-12-31T05:24:59.195Z,102438.59
2022-12-31T05:27:35.524Z,102462.47
2022-12-31T05:30:03.304Z,102461.31
2022-12-31T05:32:30.185Z,102474.38
2022-12-31T05:34:58.071Z,102453.63
2022-12-31T05:37:24.818Z,102354.56
2022-12-31T05:39:52.004Z,102452.84
2022-12-31T05:42:19.869Z,102486.28
2022-12-31T05:44:49.441Z,102480.13
2022-12-31T05:47:17.859Z,102405.03
2022-12-31T05:49:45.066Z,102484.22
2022-12-31T05:52:12.210Z,102459.34
2022-12-31T05:54:39.024Z,102494.84
2022-12-31T05:57:08.411Z,102436.66
2022-12-31T05:59:35.118Z,102469.53
2022-12-31T06:02:05.531Z,102506.13
2022-12-31T06:04:32.392Z,102509.31
2022-12-31T06:07:02.059Z,102480.56
2022-12-31T06:09:28.864Z,102516.06
2022-12-31T06:11:55.716Z,102518.09
2022-12-31T06:14:22.750Z,102525.13
2022-12-31T06:16:51.309Z,102505.88
2022-12-31T06:19:18.229Z,102516.81
2022-12-31T06:21:45.179Z,102527.44
2022-12-31T06:24:12.309Z,102494.13
2022-12-31T06:26:39.119Z,102513.28
2022-12-31T06:29:05.844Z,102509.00
2022-12-31T06:31:35.639Z,102534.34
2022-12-31T06:34:05.527Z,102548.53
2022-12-31T06:36:32.594Z,102520.03
2022-12-31T06:38:59.496Z,102555.16
2022-12-31T06:41:26.271Z,102559.00
2022-12-31T06:43:53.147Z,102541.06
2022-12-31T06:46:19.980Z,102560.34
2022-12-31T06:48:46.959Z,102576.78
2022-12-31T06:51:19.053Z,102576.78
2022-12-31T06:53:46.255Z,102572.09
2022-12-31T06:56:32.986Z,102539.38
2022-12-31T06:59:00.988Z,102575.53
2022-12-31T07:01:37.564Z,102566.19
2022-12-31T07:04:10.620Z,102582.94
2022-12-31T07:06:51.834Z,102586.78
2022-12-31T07:09:36.179Z,102588.06
2022-12-31T07:12:14.268Z,102585.50
2022-12-31T07:14:52.158Z,102593.31
2022-12-31T07:18:10.403Z,102592.53
2022-12-31T07:20:37.441Z,102603.75
2022-12-31T07:23:04.997Z,102596.72
2022-12-31T07:25:32.820Z,102609.47
2022-12-31T07:28:20.552Z,102598.88
2022-12-31T07:31:02.804Z,102623.03
2022-12-31T07:33:35.545Z,102614.47
2022-12-31T07:36:40.897Z,102615.91
2022-12-31T07:39:16.472Z,102611.69
2022-12-31T07:42:10.949Z,102629.16
2022-12-31T07:45:10.439Z,102628.16
2022-12-31T07:47:40.485Z,102634.00
2022-12-31T07:50:15.219Z,102630.38
2022-12-31T07:52:42.498Z,102605.19
2022-12-31T07:55:10.846Z,102568.22
2022-12-31T07:57:58.320Z,102644.88
2022-12-31T08:00:26.195Z,102628.88
2022-12-31T08:03:15.814Z,102648.72
2022-12-31T08:06:36.046Z,102631.97
2022-12-31T08:09:09.567Z,102648.41
2022-12-31T08:11:46.589Z,102644.13
2022-12-31T08:14:16.560Z,102643.88
2022-12-31T08:16:43.718Z,102653.84
2022-12-31T08:19:30.896Z,102593.38
2022-12-31T08:22:09.058Z,102655.13
2022-12-31T08:24:57.451Z,102658.31
2022-12-31T08:28:25.409Z,102665.59
2022-12-31T08:31:35.373Z,102681.41
2022-12-31T08:34:52.622Z,102613.75
2022-12-31T08:37:39.377Z,102673.31
2022-12-31T08:40:30.373Z,102658.25
2022-12-31T08:43:10.546Z,102630.56
2022-12-31T08:45:52.445Z,102620.06
2022-12-31T08:48:37.483Z,102690.78
2022-12-31T08:51:04.729Z,102662.63
2022-12-31T08:53:32.145Z,102673.34
2022-12-31T08:56:17.426Z,102684.78
2022-12-31T08:58:57.463Z,102695.00
2022-12-31T09:01:30.425Z,102610.81
2022-12-31T09:03:59.302Z,102650.03
2022-12-31T09:06:52.795Z,102701.91
2022-12-31T09:09:32.956Z,102651.72
2022-12-31T09:12:25.725Z,102704.81
2022-12-31T09:15:30.332Z,102680.16
2022-12-31T09:17:58.774Z,102705.00
2022-12-31T09:20:41.826Z,102710.91
2022-12-31T09:23:12.888Z,102718.19
2022-12-31T09:25:53.295Z,102646.16
2022-12-31T09:28:23.672Z,102728.38
2022-12-31T09:31:12.737Z,102725.63
2022-12-31T09:33:53.056Z,102712.59
2022-12-31T09:36:28.838Z,102714.22
2022-12-31T09:39:11.137Z,102698.72
2022-12-31T09:41:40.836Z,102731.78
2022-12-31T09:44:46.117Z,102724.31
2022-12-31T09:47:33.305Z,102726.03
2022-12-31T09:50:25.910Z,102649.50
2022-12-31T09:53:27.880Z,102721.53
2022-12-31T09:56:02.286Z,102715.16
2022-12-31T09:58:38.049Z,102721.94
2022-12-31T10:01:17.653Z,102649.69
2022-12-31T10:04:06.847Z,102661.84
2022-12-31T10:06:45.707Z,102501.94
2022-12-31T10:09:57.506Z,102701.81
2022-12-31T10:12:42.306Z,102671.00
2022-12-31T10:15:24.029Z,102664.91
2022-12-31T10:17:53.403Z,102698.19
2022-12-31T10:20:26.071Z,102695.19
2022-12-31T10:23:17.866Z,102689.47
2022-12-31T10:25:54.266Z,102689.31
2022-12-31T10:28:45.746Z,102698.94
2022-12-31T10:31:50.039Z,102699.06
2022-12-31T10:34:42.431Z,102690.63
2022-12-31T10:37:17.098Z,102689.03
2022-12-31T10:40:02.023Z,102690.22
2022-12-31T10:42:37.799Z,102687.88
2022-12-31T10:45:32.762Z,102679.91
2022-12-31T10:48:30.863Z,102671.44
2022-12-31T10:51:19.332Z,102616.75
2022-12-31T10:53:55.260Z,102678.94
2022-12-31T10:56:55.644Z,102679.22
2022-12-31T10:59:25.378Z,102683.22
2022-12-31T11:02:01.598Z,102677.59
2022-12-31T11:04:40.585Z,102660.22
2022-12-31T11:07:32.715Z,102633.78
2022-12-31T11:10:17.822Z,102652.19
2022-12-31T11:13:02.495Z,102642.69
2022-12-31T11:15:29.131Z,102631.63
2022-12-31T11:17:58.974Z,102647.19
2022-12-31T11:20:50.520Z,102574.16
2022-12-31T11:23:32.722Z,102646.03
2022-12-31T11:26:14.124Z,102643.13
2022-12-31T11:29:08.447Z,102651.66
2022-12-31T11:32:06.997Z,102651.63
2022-12-31T11:34:49.020Z,102632.41
2022-12-31T11:37:31.893Z,102660.81
2022-12-31T11:40:15.271Z,102609.63
2022-12-31T11:43:03.697Z,102662.34
2022-12-31T11:46:03.001Z,102657.59
2022-12-31T11:48:52.811Z,102618.91
2022-12-31T11:51:38.317Z,102660.66
2022-12-31T11:54:42.963Z,102661.81
2022-12-31T11:57:17.717Z,102664.47
2022-12-31T11:59:46.890Z,102585.50
2022-12-31T12:02:35.379Z,102652.47
2022-12-31T12:05:10.686Z,102632.28
2022-12-31T12:07:37.935Z,102630.03
2022-12-31T12:10:23.302Z,102646.94
2022-12-31T12:12:54.034Z,102641.34
2022-12-31T12:15:32.020Z,102611.13
2022-12-31T12:18:05.328Z,102647.22
2022-12-31T12:20:37.170Z,102604.84
2022-12-31T12:23:13.562Z,102634.66
2022-12-31T12:25:44.979Z,102611.22
2022-12-31T12:28:19.464Z,102619.13
2022-12-31T12:30:55.428Z,102641.13
2022-12-31T12:33:23.306Z,102489.91
2022-12-31T12:35:50.996Z,102565.94
2022-12-31T12:38:21.244Z,102637.75
2022-12-31T12:41:04.004Z,102615.13
2022-12-31T12:43:33.877Z,102624.22
2022-12-31T12:46:06.989Z,102632.00
2022-12-31T12:48:55.214Z,102608.31
2022-12-31T12:51:55.826Z,102638.84
2022-12-31T12:54:50.442Z,102635.88
2022-12-31T12:57:25.168Z,102613.13
2022-12-31T13:00:36.898Z,102614.28
2022-12-31T13:03:31.063Z,102541.63
2022-12-31T13:06:33.794Z,102586.84
2022-12-31T13:09:23.533Z,102606.88
2022-12-31T13:12:07.287Z,102558.22
2022-12-31T13:14:46.969Z,102524.44
2022-12-31T13:17:28.875Z,102627.19
2022-12-31T13:19:55.616Z,102555.69
2022-12-31T13:22:32.950Z,102597.28
2022-12-31T13:25:24.038Z,102548.38
2022-12-31T13:27:54.113Z,102597.69
2022-12-31T13:30:30.851Z,102609.13
2022-12-31T13:33:07.452Z,102482.31
2022-12-31T13:35:43.476Z,102617.97
2022-12-31T13:38:23.350Z,102593.94
2022-12-31T13:41:12.173Z,102609.78
2022-12-31T13:43:38.821Z,102616.72
2022-12-31T13:46:33.673Z,102618.41
2022-12-31T13:49:05.089Z,102627.84
2022-12-31T13:51:44.689Z,102611.59
2022-12-31T13:54:44.440Z,102618.88
2022-12-31T13:57:21.545Z,102609.41
2022-12-31T13:59:54.355Z,102614.56
2022-12-31T14:02:59.659Z,102583.16
2022-12-31T14:05:38.271Z,102631.00
2022-12-31T14:08:07.193Z,102596.66
2022-12-31T14:10:52.520Z,102652.41
2022-12-31T14:13:50.196Z,102544.03
2022-12-31T14:16:52.048Z,102650.06
2022-12-31T14:19:43.415Z,102652.50
2022-12-31T14:22:30.327Z,102652.72
2022-12-31T14:25:02.163Z,102635.41
2022-12-31T14:27:31.354Z,102649.09
2022-12-31T14:30:02.606Z,102642.44
2022-12-31T14:32:55.204Z,102642.84
2022-12-31T14:35:30.596Z,102653.09
2022-12-31T14:38:34.423Z,102661.22
2022-12-31T14:41:23.861Z,102633.00
2022-12-31T14:44:09.145Z,102660.34
2022-12-31T14:46:58.592Z,102608.09
2022-12-31T14:49:59.432Z,102652.66
2022-12-31T14:52:47.669Z,102640.22
2022-12-31T14:55:18.040Z,102614.13
2022-12-31T14:58:25.984Z,102633.09
2022-12-31T15:00:39.051Z,102631.03
2022-12-31T15:03:15.003Z,102682.63
2022-12-31T15:06:03.760Z,102677.41
2022-12-31T15:08:54.768Z,102677.88
2022-12-31T15:11:43.325Z,102677.31
2022-12-31T15:14:51.286Z,102601.38
2022-12-31T15:17:47.406Z,102673.88
2022-12-31T15:20:48.584Z,102665.75
2022-12-31T15:23:24.324Z,102666.09
2022-12-31T15:26:00.177Z,102622.41
2022-12-31T15:28:35.644Z,102639.50
2022-12-31T15:31:05.161Z,102615.91
2022-12-31T15:33:40.795Z,102671.34
2022-12-31T15:36:12.471Z,102635.91
2022-12-31T15:38:42.223Z,102705.84
2022-12-31T15:41:42.904Z,102711.16
2022-12-31T15:44:40.544Z,102712.22
2022-12-31T15:47:13.420Z,102710.53
2022-12-31T15:49:44.307Z,102694.25
2022-12-31T15:52:21.100Z,102709.84
2022-12-31T15:54:54.954Z,102713.06
2022-12-31T15:57:33.937Z,102690.28
2022-12-31T16:00:05.988Z,102681.25
2022-12-31T16:02:33.121Z,102717.53
2022-12-31T16:05:01.954Z,102719.16
2022-12-31T16:07:29.166Z,102702.13
2022-12-31T16:09:59.170Z,102559.09
2022-12-31T16:12:33.182Z,102724.13
2022-12-31T16:15:01.808Z,102730.97
2022-12-31T16:17:34.767Z,102733.66
2022-12-31T16:20:20.720Z,102713.19
2022-12-31T16:22:53.247Z,102710.59
2022-12-31T16:25:36.570Z,102728.19
2022-12-31T16:28:07.007Z,102736.47
2022-12-31T16:30:37.571Z,102727.63
2022-12-31T16:33:07.129Z,102746.69
2022-12-31T16:35:36.782Z,102749.13
2022-12-31T16:38:16.840Z,102525.03
2022-12-31T16:41:02.009Z,102758.19
2022-12-31T16:43:31.053Z,102755.78
2022-12-31T16:46:10.563Z,102743.59
2022-12-31T16:48:38.564Z,102746.47
2022-12-31T16:51:06.470Z,102775.28
2022-12-31T16:53:36.873Z,102765.19
2022-12-31T16:56:11.005Z,102768.56
2022-12-31T16:58:45.255Z,102765.19
2022-12-31T17:03:47.410Z,102763.09
2022-12-31T17:06:20.103Z,102771.09
2022-12-31T17:09:05.144Z,102775.66
2022-12-31T17:11:36.483Z,102779.06
2022-12-31T17:14:09.620Z,102789.16
2022-12-31T17:17:07.273Z,102790.09
2022-12-31T17:19:39.707Z,102776.78
2022-12-31T17:22:35.896Z,102731.25
2022-12-31T17:25:08.722Z,102794.66
2022-12-31T17:27:39.763Z,102702.97
2022-12-31T17:30:40.831Z,102793.13
2022-12-31T17:33:11.944Z,102785.91
2022-12-31T17:35:45.376Z,102779.25
2022-12-31T17:38:29.507Z,102796.75
2022-12-31T17:41:15.334Z,102779.78
2022-12-31T17:43:42.754Z,102805.69
2022-12-31T17:46:12.919Z,102777.28
2022-12-31T17:48:43.225Z,102785.09
2022-12-31T17:51:10.374Z,102791.63
2022-12-31T17:53:37.373Z,102795.22
2022-12-31T17:56:07.485Z,102805.09
2022-12-31T17:58:54.074Z,102766.25
2022-12-31T18:01:23.072Z,102790.94
2022-12-31T18:03:50.354Z,102764.53
2022-12-31T18:06:19.775Z,102761.84
2022-12-31T18:08:49.813Z,102787.00
2022-12-31T18:11:20.446Z,102780.31
2022-12-31T18:13:49.521Z,102771.25
2022-12-31T18:16:17.032Z,102737.88
2022-12-31T18:18:45.603Z,102796.28
2022-12-31T18:21:28.165Z,102799.03
2022-12-31T18:26:25.177Z,102800.41
2022-12-31T18:28:52.470Z,102805.59
2022-12-31T18:31:25.756Z,102766.44
2022-12-31T18:33:55.978Z,102742.81
2022-12-31T18:36:25.915Z,102763.81
2022-12-31T18:38:53.383Z,102815.41
2022-12-31T18:41:30.537Z,102796.72
2022-12-31T18:44:00.473Z,102787.13
2022-12-31T18:46:27.897Z,102816.28
2022-12-31T18:48:54.675Z,102827.19
2022-12-31T18:51:31.499Z,102820.38
2022-12-31T18:54:02.539Z,102825.72
2022-12-31T18:56:32.381Z,102816.66
2022-12-31T18:58:59.983Z,102839.78
2022-12-31T19:01:35.696Z,102841.84
2022-12-31T19:04:07.625Z,102842.09
2022-12-31T19:06:34.383Z,102839.53
2022-12-31T19:09:06.365Z,102775.91
2022-12-31T19:11:45.164Z,102834.47
2022-12-31T19:14:21.769Z,102837.03
2022-12-31T19:16:49.670Z,102828.13
2022-12-31T19:19:17.019Z,102824.53
2022-12-31T19:21:44.304Z,102824.34
2022-12-31T19:24:14.094Z,102827.44
2022-12-31T19:26:43.539Z,102822.72
2022-12-31T19:29:30.810Z,102804.22
2022-12-31T19:32:03.324Z,102819.63
2022-12-31T19:34:30.261Z,102832.75
2022-12-31T19:36:58.547Z,102808.22
2022-12-31T19:39:25.262Z,102842.25
2022-12-31T19:41:58.775Z,102806.47
2022-12-31T19:44:26.726Z,102753.44
2022-12-31T19:46:56.261Z,102852.47
2022-12-31T19:49:24.124Z,102852.69
2022-12-31T19:51:51.015Z,102839.13
2022-12-31T19:54:17.853Z,102848.66
2022-12-31T19:56:44.849Z,102863.72
2022-12-31T19:59:11.944Z,102838.06
2022-12-31T20:01:38.925Z,102835.56
2022-12-31T20:04:09.059Z,102851.19
2022-12-31T20:06:35.864Z,102829.72
2022-12-31T20:09:03.301Z,102858.03
2022-12-31T20:11:30.052Z,102769.69
2022-12-31T20:14:00.072Z,102870.38
2022-12-31T20:16:32.860Z,102858.19
2022-12-31T20:19:05.591Z,102848.69
2022-12-31T20:21:36.246Z,102875.34
2022-12-31T20:24:03.098Z,102863.34
2022-12-31T20:26:30.340Z,102767.22
2022-12-31T20:28:57.383Z,102886.31
2022-12-31T20:31:25.591Z,102889.66
2022-12-31T20:33:54.409Z,102888.13
2022-12-31T20:36:21.953Z,102876.34
2022-12-31T20:38:48.843Z,102874.72
2022-12-31T20:41:19.308Z,102887.34
2022-12-31T20:43:46.960Z,102869.22
2022-12-31T20:46:21.727Z,102867.75
2022-12-31T20:48:52.673Z,102832.59
2022-12-31T20:51:22.355Z,102775.03
2022-12-31T20:54:00.557Z,102880.09
2022-12-31T20:56:31.022Z,102842.97
2022-12-31T20:59:04.727Z,102860.63
2022-12-31T21:01:55.692Z,102865.72
2022-12-31T21:04:19.548Z,102875.41
2022-12-31T21:06:48.157Z,102856.47
2022-12-31T21:09:15.950Z,102840.88
2022-12-31T21:12:15.732Z,102872.59
2022-12-31T21:14:45.336Z,102861.66
2022-12-31T21:17:22.020Z,102801.50
2022-12-31T21:19:48.703Z,102862.94
2022-12-31T21:22:15.834Z,102858.66
2022-12-31T21:24:42.936Z,102865.72
2022-12-31T21:27:12.963Z,102850.50
2022-12-31T21:30:17.196Z,102856.66
2022-12-31T21:32:32.858Z,102872.41
2022-12-31T21:35:40.370Z,102864.00
2022-12-31T21:37:58.923Z,102875.84
2022-12-31T21:40:29.403Z,102872.09
2022-12-31T21:42:56.274Z,102843.09
2022-12-31T21:45:23.147Z,102830.56
2022-12-31T21:48:08.965Z,102848.00
2022-12-31T21:50:36.365Z,102873.97
2022-12-31T21:53:03.281Z,102865.66
2022-12-31T21:55:48.538Z,102812.72
2022-12-31T21:58:32.028Z,102866.09
2022-12-31T22:01:18.721Z,102863.59
2022-12-31T22:03:46.100Z,102866.41
2022-12-31T22:06:22.680Z,102853.69
2022-12-31T22:08:51.988Z,102808.88
2022-12-31T22:11:20.460Z,102849.75
2022-12-31T22:13:49.565Z,102838.47
2022-12-31T22:16:17.325Z,102848.41
2022-12-31T22:18:46.983Z,102860.00
2022-12-31T22:21:19.230Z,102858.75
2022-12-31T22:23:49.358Z,102841.75
2022-12-31T22:26:18.501Z,102857.22
2022-12-31T22:28:46.656Z,102838.75
2022-12-31T22:31:17.219Z,102842.34
2022-12-31T22:33:48.098Z,102849.34
2022-12-31T22:36:20.024Z,102817.72
2022-12-31T22:38:47.569Z,102847.09
2022-12-31T22:41:20.100Z,102848.94
2022-12-31T22:43:50.061Z,102858.38
2022-12-31T22:46:19.827Z,102836.75
2022-12-31T22:48:47.161Z,102840.94
2022-12-31T22:51:15.103Z,102841.00
2022-12-31T22:53:43.573Z,102843.66
2022-12-31T22:56:16.334Z,102847.09
2022-12-31T22:58:46.512Z,102845.66
2022-12-31T23:01:16.651Z,102854.41
2022-12-31T23:03:43.980Z,102829.34
2022-12-31T23:06:11.098Z,102807.25
2022-12-31T23:08:40.910Z,102849.69
2022-12-31T23:11:09.810Z,102849.75
2022-12-31T23:13:59.276Z,102844.56
2022-12-31T23:16:48.264Z,102803.50
2022-12-31T23:19:34.865Z,102840.38
2022-12-31T23:25:05.496Z,102827.28
2022-12-31T23:27:32.344Z,102813.63
2022-12-31T23:29:59.210Z,102807.84
2022-12-31T23:32:26.864Z,102844.56
2022-12-31T23:34:57.700Z,102807.06
2022-12-31T23:37:24.908Z,102864.75
2022-12-31T23:39:51.754Z,102838.91
2022-12-31T23:42:18.558Z,102822.53
2022-12-31T23:44:45.446Z,102792.44
2022-12-31T23:47:15.521Z,102865.59
2022-12-31T23:49:42.334Z,102836.25
2022-12-31T23:52:12.246Z,102861.59
2022-12-31T23:54:39.275Z,102865.75
2022-12-31T23:57:06.263Z,102870.19
2022-12-31T23:59:38.543Z,102866.84
